ASN logo
Last updated: 10 December 2018
Status:Zwischenbericht
Datum:Samstag 2 Januar 2010
Flugzeugtyp:Silhouette image of generic B722 model; specific model in this crash may look slightly different
Boeing 727-231F Super 27
Fluggesellschaft:Compagnie Africaine d'Aviation - CAA
Kennzeichen: 9Q-CAA
Werknummer: 21986/1580
Baujahr: 1980
Triebwerk: 3 Pratt & Whitney JT8D-219
Besatzung:Todesopfer: 0 / Insassen: 3
Fluggäste:Todesopfer: 0 / Insassen: 0
Gesamt:Todesopfer: 0 / Insassen: 3
Sachschaden: schwer beschädigt
Konsequenzen: Written off (damaged beyond repair)
Unfallort:Kinshasa-N'Djili Airport (FIH) (   Kongo/Kinshasa)
Flugphase: Landung (LDG)
Betriebsart:Frachtflug
Flug von:Kinshasa-N'Djili Airport (FIH/FZAA), Kongo/Kinshasa
Flug nach:?
Unfallbericht:
A Boeing 727, operated by Compagnie Africaine d'Aviation - CAA, sustained substantial damage following a runway excursion on landing at Kinshasa-N'Djili Airport (FIH), D.R. Congo.
The airplane reportedly landed in very heavy rain and substantial standing water on runway 06 and slid off the side of the runway. It was suspected that improper removal of the tailskid following a landing incident on December 31 caused a loss of hydraulic pressure shortly after takeoff. The flight circled the field for two hours before they carried out an emergency landing.

Informationsquelle:
» Flyafrica.info

METAR Weather report:
06:00 UTC / 07:00 local time:
FZAA 020600Z 27008KT 2500 TSRA SCT014 SCT028CB OVC100 22/22 Q1014 BECMG 1000=

07:00 UTC / 08:00 local time:
FZAA 020700Z 09004KT 3000 -TSRA FEW016 FEW026CB OVC100 22/21 Q1015 SECT CB NW-W BECMG 6000=

08:00 UTC / 09:00 local time:
FZAA 020800Z 09008KT 4500 -TSRA FEW016 FEW028CB OVC100 22/22 Q1015 SECT CB W NOSIG=


Fotos

Add your photo of this accident or aircraft

Video, social media
DSC00823 DSC00830

This information is not presented as the Flight Safety Foundation or the Aviation Safety Network’s opinion as to the cause of the accident. It is preliminary and is based on the facts as they are known at this time.
languages: languages

Share

Boeing 727

  • 1832 built
  • 114th loss
» safety profile

 Kongo/Kinshasa
  • 70th worst accident (Zu diesem Zeitpunkt)
  • 82nd worst accident (Momentan)
» safety profile